CSG3694 RKSI-ZHCC
Flight info
| Callsign | CSG3694 |
|---|---|
| Flight time | 2h 2m |
| Altitude | 34000 |
| Route | NOPIK2Y NOPIK Y697 AGAVO/K0813S0660 A591 IKEKA W4 FZ/K0887S1040 W4 TAMIX B208 NOPIN NOP7U |
| Aircraft | B77L/H-SDE1E2E3FGHIJ2J3J4J5M1RWXY/LB1D1 |
Departure
| Time | 2026-04-26 04:49 |
|---|---|
| Airport | Incheon International Airport (RKSI) |
Arrival
| Time | 2026-04-26 06:51 |
|---|---|
| Airport | Zhengzhou Xinzheng International Airport (ZHCC) |
| Time | Latitude | Longitude | Altitude | Speed | Heading |
|---|---|---|---|---|---|
| 2026-04-26 04:32 | 37.46425 | 126.46493 | 36 ft | 0 kts | 144° |
| 2026-04-26 04:41 | 37.46427 | 126.46492 | 37 ft | 3 kts | 144° |
| 2026-04-26 04:42 | 37.46448 | 126.46473 | 36 ft | 3 kts | 144° |
| 2026-04-26 04:42 | 37.46467 | 126.46458 | 34 ft | 4 kts | 161° |
| 2026-04-26 04:42 | 37.46491 | 126.46456 | 36 ft | 4 kts | 211° |
| 2026-04-26 04:42 | 37.46510 | 126.46479 | 35 ft | 4 kts | 235° |
| 2026-04-26 04:43 | 37.46512 | 126.46484 | 35 ft | 0 kts | 234° |
| 2026-04-26 04:45 | 37.46483 | 126.46431 | 37 ft | 20 kts | 234° |
| 2026-04-26 04:46 | 37.46398 | 126.46288 | 37 ft | 16 kts | 225° |
| 2026-04-26 04:46 | 37.46327 | 126.46210 | 37 ft | 9 kts | 213° |
| 2026-04-26 04:46 | 37.46267 | 126.46218 | 35 ft | 9 kts | 150° |
| 2026-04-26 04:46 | 37.46215 | 126.46264 | 37 ft | 9 kts | 144° |
| 2026-04-26 04:47 | 37.46148 | 126.46324 | 37 ft | 19 kts | 145° |
| 2026-04-26 04:47 | 37.46029 | 126.46428 | 37 ft | 21 kts | 144° |
| 2026-04-26 04:47 | 37.45911 | 126.46535 | 37 ft | 21 kts | 144° |
| 2026-04-26 04:47 | 37.45825 | 126.46610 | 37 ft | 8 kts | 145° |
| 2026-04-26 04:48 | 37.45729 | 126.46606 | 37 ft | 8 kts | 226° |
| 2026-04-26 04:48 | 37.45688 | 126.46535 | 37 ft | 11 kts | 234° |
| 2026-04-26 04:48 | 37.45669 | 126.46453 | 37 ft | 11 kts | 295° |
| 2026-04-26 04:49 | 37.45731 | 126.46386 | 37 ft | 17 kts | 324° |
| 2026-04-26 04:49 | 37.46034 | 126.46115 | 37 ft | 106 kts | 325° |
| 2026-04-26 04:49 | 37.46918 | 126.45294 | 223 ft | 190 kts | 322° |
| 2026-04-26 04:49 | 37.48007 | 126.44301 | 1301 ft | 197 kts | 322° |
| 2026-04-26 04:50 | 37.49115 | 126.43315 | 2165 ft | 199 kts | 321° |
| 2026-04-26 04:50 | 37.50227 | 126.42232 | 2856 ft | 204 kts | 320° |
| 2026-04-26 04:50 | 37.51382 | 126.41120 | 3402 ft | 215 kts | 319° |
| 2026-04-26 04:50 | 37.52584 | 126.39933 | 3990 ft | 222 kts | 320° |
| 2026-04-26 04:51 | 37.53844 | 126.38729 | 4601 ft | 231 kts | 321° |
| 2026-04-26 04:51 | 37.55200 | 126.37540 | 5072 ft | 249 kts | 324° |
| 2026-04-26 04:51 | 37.56686 | 126.36257 | 5438 ft | 264 kts | 317° |
| 2026-04-26 04:51 | 37.57760 | 126.34387 | 6030 ft | 269 kts | 288° |
| 2026-04-26 04:52 | 37.57999 | 126.32068 | 6739 ft | 268 kts | 268° |
| 2026-04-26 04:52 | 37.57970 | 126.29693 | 7443 ft | 273 kts | 268° |
| 2026-04-26 04:52 | 37.57962 | 126.27283 | 8289 ft | 275 kts | 269° |
| 2026-04-26 04:52 | 37.57962 | 126.24893 | 9108 ft | 278 kts | 269° |
| 2026-04-26 04:53 | 37.57965 | 126.22413 | 9926 ft | 280 kts | 269° |
| 2026-04-26 04:53 | 37.57694 | 126.19980 | 10446 ft | 287 kts | 249° |
| 2026-04-26 04:53 | 37.56835 | 126.17630 | 10614 ft | 311 kts | 244° |
| 2026-04-26 04:53 | 37.55828 | 126.15082 | 10830 ft | 337 kts | 244° |
| 2026-04-26 04:54 | 37.54744 | 126.12343 | 11110 ft | 360 kts | 244° |
| 2026-04-26 04:54 | 37.53613 | 126.09469 | 11798 ft | 370 kts | 244° |
| 2026-04-26 04:54 | 37.52469 | 126.06540 | 12720 ft | 375 kts | 244° |
| 2026-04-26 04:54 | 37.51315 | 126.03571 | 13736 ft | 378 kts | 244° |
| 2026-04-26 04:55 | 37.50156 | 126.00580 | 14622 ft | 382 kts | 245° |
| 2026-04-26 04:55 | 37.49016 | 125.97631 | 15483 ft | 385 kts | 245° |
| 2026-04-26 04:55 | 37.47836 | 125.94581 | 16353 ft | 389 kts | 245° |
| 2026-04-26 04:55 | 37.46644 | 125.91502 | 17195 ft | 394 kts | 245° |
| 2026-04-26 04:56 | 37.45436 | 125.88382 | 17993 ft | 399 kts | 245° |
| 2026-04-26 04:56 | 37.44215 | 125.85233 | 18758 ft | 402 kts | 245° |
| 2026-04-26 04:56 | 37.42979 | 125.82048 | 19490 ft | 406 kts | 245° |
| 2026-04-26 04:56 | 37.41731 | 125.78838 | 20206 ft | 409 kts | 245° |
| 2026-04-26 04:57 | 37.40630 | 125.75589 | 20772 ft | 411 kts | 255° |
| 2026-04-26 04:57 | 37.40282 | 125.72026 | 21323 ft | 412 kts | 271° |
| 2026-04-26 04:57 | 37.40323 | 125.68393 | 21904 ft | 418 kts | 271° |
| 2026-04-26 04:57 | 37.40304 | 125.64706 | 22605 ft | 421 kts | 270° |
| 2026-04-26 04:58 | 37.40257 | 125.61012 | 23329 ft | 424 kts | 270° |
| 2026-04-26 04:58 | 37.40204 | 125.57286 | 23937 ft | 428 kts | 270° |
| 2026-04-26 04:58 | 37.40150 | 125.53533 | 24514 ft | 431 kts | 270° |
| 2026-04-26 04:58 | 37.40097 | 125.49755 | 25100 ft | 433 kts | 270° |
| 2026-04-26 04:59 | 37.40043 | 125.45958 | 25709 ft | 435 kts | 270° |
| 2026-04-26 04:59 | 37.39988 | 125.42148 | 26309 ft | 437 kts | 270° |
| 2026-04-26 04:59 | 37.39932 | 125.38362 | 26869 ft | 439 kts | 271° |
| 2026-04-26 04:59 | 37.39875 | 125.34506 | 27421 ft | 442 kts | 271° |
| 2026-04-26 05:00 | 37.39816 | 125.30623 | 27962 ft | 444 kts | 271° |
| 2026-04-26 05:00 | 37.39756 | 125.26722 | 28502 ft | 447 kts | 271° |
| 2026-04-26 05:00 | 37.39693 | 125.22811 | 29041 ft | 448 kts | 271° |
| 2026-04-26 05:00 | 37.39629 | 125.18881 | 29593 ft | 449 kts | 271° |
| 2026-04-26 05:01 | 37.39563 | 125.14949 | 30063 ft | 451 kts | 271° |
| 2026-04-26 05:01 | 37.39497 | 125.11004 | 30516 ft | 451 kts | 271° |
| 2026-04-26 05:01 | 37.39429 | 125.07069 | 31057 ft | 448 kts | 271° |
| 2026-04-26 05:01 | 37.39361 | 125.03213 | 31597 ft | 445 kts | 271° |
| 2026-04-26 05:02 | 37.39293 | 124.99428 | 32073 ft | 444 kts | 271° |
| 2026-04-26 05:02 | 37.39223 | 124.95557 | 32627 ft | 441 kts | 271° |
| 2026-04-26 05:02 | 37.39153 | 124.91720 | 33165 ft | 438 kts | 271° |
| 2026-04-26 05:02 | 37.39082 | 124.87897 | 33639 ft | 436 kts | 271° |
| 2026-04-26 05:03 | 37.39010 | 124.84093 | 34033 ft | 436 kts | 271° |
| 2026-04-26 05:03 | 37.38935 | 124.80248 | 34001 ft | 440 kts | 271° |
| 2026-04-26 05:03 | 37.38776 | 124.72561 | 34008 ft | 436 kts | 270° |
| 2026-04-26 05:04 | 37.38615 | 124.64983 | 34011 ft | 431 kts | 270° |
| 2026-04-26 05:04 | 37.38454 | 124.57469 | 34008 ft | 430 kts | 270° |
| 2026-04-26 05:05 | 37.38287 | 124.49951 | 34004 ft | 430 kts | 270° |
| 2026-04-26 05:05 | 37.37410 | 124.42564 | 34010 ft | 435 kts | 256° |
| 2026-04-26 05:06 | 37.35049 | 124.35514 | 34002 ft | 443 kts | 243° |
| 2026-04-26 05:06 | 37.31704 | 124.28977 | 34008 ft | 446 kts | 242° |
| 2026-04-26 05:07 | 37.28325 | 124.22435 | 34003 ft | 446 kts | 242° |
| 2026-04-26 05:07 | 37.24988 | 124.15848 | 33999 ft | 446 kts | 242° |
| 2026-04-26 05:08 | 37.21629 | 124.09308 | 34006 ft | 446 kts | 241° |
| 2026-04-26 05:08 | 37.18188 | 124.02822 | 34001 ft | 446 kts | 241° |
| 2026-04-26 05:09 | 37.14821 | 123.96409 | 33999 ft | 446 kts | 242° |
| 2026-04-26 05:09 | 37.11484 | 123.89932 | 34000 ft | 445 kts | 242° |
| 2026-04-26 05:10 | 37.08124 | 123.83412 | 34001 ft | 444 kts | 242° |
| 2026-04-26 05:10 | 37.04767 | 123.76926 | 34000 ft | 444 kts | 242° |
| 2026-04-26 05:11 | 37.01396 | 123.70432 | 33979 ft | 444 kts | 241° |
| 2026-04-26 05:11 | 36.98031 | 123.63963 | 33998 ft | 443 kts | 241° |
| 2026-04-26 05:12 | 36.94662 | 123.57499 | 34002 ft | 443 kts | 241° |
| 2026-04-26 05:12 | 36.91294 | 123.51047 | 34001 ft | 443 kts | 241° |
| 2026-04-26 05:13 | 36.87926 | 123.44606 | 33991 ft | 443 kts | 241° |
| 2026-04-26 05:13 | 36.84900 | 123.38036 | 33993 ft | 432 kts | 256° |
| 2026-04-26 05:14 | 36.84332 | 123.34378 | 34001 ft | 429 kts | 267° |
| 2026-04-26 05:14 | 36.84319 | 123.30660 | 33998 ft | 429 kts | 276° |
| 2026-04-26 05:14 | 36.85822 | 123.23470 | 33991 ft | 430 kts | 287° |
| 2026-04-26 05:15 | 36.87650 | 123.16326 | 33992 ft | 433 kts | 287° |
| 2026-04-26 05:15 | 36.89442 | 123.09129 | 34000 ft | 435 kts | 286° |
| 2026-04-26 05:16 | 36.91184 | 123.01933 | 34001 ft | 436 kts | 285° |
| 2026-04-26 05:16 | 36.92902 | 122.94760 | 33995 ft | 436 kts | 285° |
| 2026-04-26 05:17 | 36.94633 | 122.87505 | 33989 ft | 435 kts | 285° |
| 2026-04-26 05:17 | 36.96067 | 122.81483 | 34012 ft | 434 kts | 285° |
| 2026-04-26 05:18 | 36.97791 | 122.74224 | 34045 ft | 434 kts | 285° |
| 2026-04-26 05:18 | 36.99501 | 122.67003 | 34076 ft | 432 kts | 285° |
| 2026-04-26 05:19 | 37.01193 | 122.59836 | 34084 ft | 432 kts | 285° |
| 2026-04-26 05:19 | 37.02894 | 122.52612 | 34086 ft | 433 kts | 285° |
| 2026-04-26 05:20 | 37.04592 | 122.45378 | 34081 ft | 434 kts | 285° |
| 2026-04-26 05:20 | 37.06316 | 122.38142 | 34079 ft | 433 kts | 288° |
| 2026-04-26 05:21 | 37.07638 | 122.34741 | 34071 ft | 437 kts | 299° |
| 2026-04-26 05:21 | 37.09404 | 122.31630 | 34091 ft | 441 kts | 305° |
| 2026-04-26 05:21 | 37.13960 | 122.26401 | 34087 ft | 448 kts | 319° |
| 2026-04-26 05:22 | 37.16292 | 122.23849 | 34078 ft | 442 kts | 308° |
| 2026-04-26 05:22 | 37.18182 | 122.20836 | 34065 ft | 438 kts | 300° |
| 2026-04-26 05:22 | 37.20750 | 122.13987 | 34084 ft | 432 kts | 286° |
| 2026-04-26 05:23 | 37.22550 | 122.06823 | 34082 ft | 434 kts | 286° |
| 2026-04-26 05:23 | 37.24346 | 121.99696 | 34070 ft | 435 kts | 286° |
| 2026-04-26 05:24 | 37.26201 | 121.92456 | 34054 ft | 436 kts | 286° |
| 2026-04-26 05:24 | 37.28068 | 121.85215 | 34043 ft | 436 kts | 286° |
| 2026-04-26 05:25 | 37.29935 | 121.77961 | 34053 ft | 435 kts | 286° |
| 2026-04-26 05:25 | 37.31792 | 121.70725 | 34036 ft | 435 kts | 286° |
| 2026-04-26 05:26 | 37.33639 | 121.63497 | 34050 ft | 434 kts | 286° |
| 2026-04-26 05:26 | 37.35481 | 121.56275 | 34044 ft | 433 kts | 286° |
| 2026-04-26 05:27 | 37.37314 | 121.49066 | 34042 ft | 433 kts | 286° |
| 2026-04-26 05:27 | 37.39128 | 121.41906 | 34038 ft | 433 kts | 286° |
| 2026-04-26 05:28 | 37.40951 | 121.34695 | 34038 ft | 432 kts | 286° |
| 2026-04-26 05:28 | 37.42769 | 121.27484 | 34042 ft | 432 kts | 286° |
| 2026-04-26 05:29 | 37.44584 | 121.20263 | 34033 ft | 432 kts | 286° |
| 2026-04-26 05:29 | 37.46637 | 121.13141 | 34039 ft | 433 kts | 290° |
| 2026-04-26 05:30 | 37.48903 | 121.06103 | 34044 ft | 434 kts | 290° |
| 2026-04-26 05:30 | 37.51127 | 120.99166 | 34046 ft | 434 kts | 290° |
| 2026-04-26 05:31 | 37.53368 | 120.92099 | 34036 ft | 435 kts | 290° |
| 2026-04-26 05:31 | 37.55605 | 120.85013 | 34040 ft | 435 kts | 290° |
| 2026-04-26 05:32 | 37.57841 | 120.77919 | 34043 ft | 436 kts | 290° |
| 2026-04-26 05:32 | 37.60122 | 120.70824 | 34036 ft | 437 kts | 291° |
| 2026-04-26 05:33 | 37.62468 | 120.63751 | 34039 ft | 437 kts | 291° |
| 2026-04-26 05:33 | 37.64441 | 120.56545 | 34048 ft | 435 kts | 281° |
| 2026-04-26 05:34 | 37.65105 | 120.48964 | 34050 ft | 434 kts | 271° |
| 2026-04-26 05:34 | 37.64670 | 120.41346 | 34040 ft | 435 kts | 265° |
| 2026-04-26 05:35 | 37.64078 | 120.33754 | 34045 ft | 435 kts | 265° |
| 2026-04-26 05:35 | 37.63510 | 120.26190 | 34023 ft | 435 kts | 266° |
| 2026-04-26 05:36 | 37.62960 | 120.18596 | 34027 ft | 436 kts | 266° |
| 2026-04-26 05:36 | 37.62410 | 120.10959 | 34054 ft | 436 kts | 266° |
| 2026-04-26 05:37 | 37.61855 | 120.03333 | 34032 ft | 437 kts | 266° |
| 2026-04-26 05:37 | 37.61302 | 119.95808 | 34038 ft | 437 kts | 266° |
| 2026-04-26 05:38 | 37.60735 | 119.88164 | 34035 ft | 437 kts | 266° |
| 2026-04-26 05:38 | 37.60163 | 119.80531 | 34027 ft | 437 kts | 266° |
| 2026-04-26 05:39 | 37.59588 | 119.72900 | 34020 ft | 437 kts | 266° |
| 2026-04-26 05:39 | 37.59022 | 119.65260 | 34019 ft | 437 kts | 267° |
| 2026-04-26 05:40 | 37.58566 | 119.57674 | 34027 ft | 437 kts | 267° |
| 2026-04-26 05:40 | 37.58087 | 119.50036 | 34034 ft | 437 kts | 267° |
| 2026-04-26 05:41 | 37.57540 | 119.42401 | 34027 ft | 437 kts | 266° |
| 2026-04-26 05:41 | 37.56980 | 119.34766 | 34011 ft | 437 kts | 266° |
| 2026-04-26 05:42 | 37.56423 | 119.27130 | 34014 ft | 437 kts | 266° |
| 2026-04-26 05:42 | 37.55864 | 119.19494 | 34020 ft | 437 kts | 267° |
| 2026-04-26 05:43 | 37.55302 | 119.11864 | 34024 ft | 437 kts | 266° |
| 2026-04-26 05:43 | 37.54735 | 119.04233 | 34017 ft | 437 kts | 267° |
| 2026-04-26 05:44 | 37.54175 | 118.96768 | 34015 ft | 437 kts | 267° |
| 2026-04-26 05:44 | 37.53597 | 118.89133 | 34017 ft | 437 kts | 267° |
| 2026-04-26 05:45 | 37.53015 | 118.81501 | 34012 ft | 437 kts | 267° |
| 2026-04-26 05:45 | 37.52255 | 118.73888 | 34005 ft | 438 kts | 264° |
| 2026-04-26 05:46 | 37.51307 | 118.66338 | 34002 ft | 438 kts | 264° |
| 2026-04-26 05:46 | 37.50349 | 118.58750 | 34002 ft | 438 kts | 264° |
| 2026-04-26 05:47 | 37.49402 | 118.51166 | 33997 ft | 438 kts | 264° |
| 2026-04-26 05:47 | 37.48456 | 118.43573 | 33996 ft | 438 kts | 264° |
| 2026-04-26 05:48 | 37.47505 | 118.35992 | 33987 ft | 438 kts | 264° |
| 2026-04-26 05:48 | 37.46551 | 118.28417 | 33990 ft | 438 kts | 264° |
| 2026-04-26 05:49 | 37.45119 | 118.17106 | 33987 ft | 438 kts | 264° |
| 2026-04-26 05:50 | 37.44166 | 118.09537 | 33986 ft | 438 kts | 264° |
| 2026-04-26 05:50 | 37.43209 | 118.01970 | 33989 ft | 437 kts | 264° |
| 2026-04-26 05:51 | 37.42259 | 117.94506 | 33972 ft | 436 kts | 265° |
| 2026-04-26 05:51 | 37.41295 | 117.86971 | 33982 ft | 436 kts | 265° |
| 2026-04-26 05:52 | 37.40326 | 117.79430 | 33977 ft | 436 kts | 264° |
| 2026-04-26 05:52 | 37.39359 | 117.71950 | 33977 ft | 436 kts | 264° |
| 2026-04-26 05:53 | 37.38381 | 117.64423 | 33977 ft | 436 kts | 264° |
| 2026-04-26 05:53 | 37.37397 | 117.56883 | 33979 ft | 436 kts | 264° |
| 2026-04-26 05:54 | 37.36409 | 117.49350 | 33981 ft | 437 kts | 264° |
| 2026-04-26 05:54 | 37.35148 | 117.41868 | 33947 ft | 440 kts | 258° |
| 2026-04-26 05:55 | 37.32956 | 117.34651 | 33974 ft | 444 kts | 252° |
| 2026-04-26 05:55 | 37.30397 | 117.27582 | 33967 ft | 444 kts | 251° |
| 2026-04-26 05:56 | 37.27875 | 117.20578 | 33960 ft | 443 kts | 252° |
| 2026-04-26 05:56 | 37.25355 | 117.13531 | 33968 ft | 442 kts | 252° |
| 2026-04-26 05:57 | 37.22838 | 117.06497 | 33937 ft | 441 kts | 252° |
| 2026-04-26 05:57 | 37.20349 | 116.99601 | 33954 ft | 441 kts | 252° |
| 2026-04-26 05:58 | 37.17793 | 116.92611 | 33963 ft | 440 kts | 252° |
| 2026-04-26 05:58 | 37.15244 | 116.85628 | 33962 ft | 440 kts | 253° |
| 2026-04-26 05:59 | 37.12722 | 116.78652 | 33962 ft | 439 kts | 254° |
| 2026-04-26 05:59 | 37.10349 | 116.71667 | 33963 ft | 437 kts | 254° |
| 2026-04-26 06:00 | 37.07964 | 116.64656 | 33960 ft | 437 kts | 254° |
| 2026-04-26 06:00 | 37.05559 | 116.57655 | 33967 ft | 437 kts | 254° |
| 2026-04-26 06:01 | 37.03169 | 116.50649 | 33966 ft | 436 kts | 255° |
| 2026-04-26 06:01 | 37.00805 | 116.43714 | 33965 ft | 436 kts | 255° |
| 2026-04-26 06:02 | 36.98422 | 116.36740 | 33968 ft | 435 kts | 255° |
| 2026-04-26 06:02 | 36.96035 | 116.29778 | 33956 ft | 434 kts | 255° |
| 2026-04-26 06:03 | 36.93649 | 116.22837 | 33964 ft | 434 kts | 255° |
| 2026-04-26 06:03 | 36.91282 | 116.15965 | 33961 ft | 433 kts | 255° |
| 2026-04-26 06:04 | 36.88896 | 116.09053 | 33969 ft | 433 kts | 255° |
| 2026-04-26 06:04 | 36.86505 | 116.02142 | 33965 ft | 433 kts | 255° |
| 2026-04-26 06:05 | 36.84143 | 115.95332 | 33950 ft | 433 kts | 255° |
| 2026-04-26 06:05 | 36.81752 | 115.88450 | 33965 ft | 432 kts | 255° |
| 2026-04-26 06:06 | 36.79357 | 115.81572 | 33970 ft | 432 kts | 255° |
| 2026-04-26 06:06 | 36.77361 | 115.75862 | 33979 ft | 432 kts | 255° |
| 2026-04-26 06:07 | 36.74951 | 115.68998 | 33978 ft | 432 kts | 255° |
| 2026-04-26 06:07 | 36.72537 | 115.62133 | 33980 ft | 432 kts | 255° |
| 2026-04-26 06:08 | 36.70123 | 115.55280 | 33948 ft | 431 kts | 255° |
| 2026-04-26 06:08 | 36.67727 | 115.48490 | 33967 ft | 431 kts | 255° |
| 2026-04-26 06:09 | 36.65307 | 115.41646 | 33975 ft | 432 kts | 255° |
| 2026-04-26 06:09 | 36.62881 | 115.34802 | 33977 ft | 432 kts | 254° |
| 2026-04-26 06:10 | 36.60434 | 115.27958 | 33970 ft | 433 kts | 254° |
| 2026-04-26 06:10 | 36.57963 | 115.21120 | 33975 ft | 433 kts | 253° |
| 2026-04-26 06:11 | 36.54862 | 115.14565 | 33971 ft | 447 kts | 243° |
| 2026-04-26 06:11 | 36.50787 | 115.08601 | 33967 ft | 460 kts | 233° |
| 2026-04-26 06:12 | 36.46080 | 115.03141 | 33968 ft | 463 kts | 232° |
| 2026-04-26 06:12 | 36.41463 | 114.97779 | 33969 ft | 461 kts | 233° |
| 2026-04-26 06:13 | 36.37024 | 114.92125 | 33962 ft | 451 kts | 239° |
| 2026-04-26 06:13 | 36.33468 | 114.85848 | 33966 ft | 439 kts | 248° |
| 2026-04-26 06:14 | 36.30455 | 114.79319 | 33967 ft | 439 kts | 248° |
| 2026-04-26 06:14 | 36.27370 | 114.72772 | 33963 ft | 440 kts | 248° |
| 2026-04-26 06:15 | 36.24202 | 114.66270 | 33962 ft | 441 kts | 247° |
| 2026-04-26 06:15 | 36.21004 | 114.59774 | 33970 ft | 441 kts | 247° |
| 2026-04-26 06:16 | 36.17811 | 114.53281 | 33963 ft | 441 kts | 247° |
| 2026-04-26 06:16 | 36.14621 | 114.46791 | 33975 ft | 442 kts | 247° |
| 2026-04-26 06:17 | 36.11423 | 114.40291 | 33969 ft | 442 kts | 247° |
| 2026-04-26 06:17 | 36.08248 | 114.33850 | 33950 ft | 441 kts | 247° |
| 2026-04-26 06:18 | 36.05050 | 114.27376 | 33972 ft | 441 kts | 247° |
| 2026-04-26 06:18 | 36.01851 | 114.20909 | 33981 ft | 442 kts | 246° |
| 2026-04-26 06:19 | 35.98640 | 114.14432 | 33978 ft | 442 kts | 246° |
| 2026-04-26 06:19 | 35.95422 | 114.07956 | 33987 ft | 442 kts | 246° |
| 2026-04-26 06:20 | 35.92205 | 114.01492 | 33961 ft | 442 kts | 246° |
| 2026-04-26 06:20 | 35.89013 | 113.95091 | 33994 ft | 444 kts | 246° |
| 2026-04-26 06:21 | 35.85771 | 113.88597 | 33998 ft | 446 kts | 246° |
| 2026-04-26 06:21 | 35.82505 | 113.82070 | 33998 ft | 448 kts | 246° |
| 2026-04-26 06:22 | 35.79231 | 113.75543 | 33999 ft | 448 kts | 246° |
| 2026-04-26 06:22 | 35.75951 | 113.69013 | 33968 ft | 448 kts | 246° |
| 2026-04-26 06:23 | 35.72668 | 113.62494 | 34014 ft | 447 kts | 246° |
| 2026-04-26 06:23 | 35.69411 | 113.56034 | 34021 ft | 445 kts | 246° |
| 2026-04-26 06:24 | 35.67701 | 113.52650 | 34018 ft | 445 kts | 246° |
| 2026-04-26 06:30 | 35.67693 | 113.52635 | 34002 ft | 445 kts | 246° |
| 2026-04-26 06:30 | 35.64154 | 113.46754 | 33523 ft | 464 kts | 229° |
| 2026-04-26 06:30 | 35.61399 | 113.44537 | 33035 ft | 486 kts | 214° |
| 2026-04-26 06:31 | 35.58137 | 113.43199 | 32708 ft | 506 kts | 198° |
| 2026-04-26 06:31 | 35.54583 | 113.42946 | 32588 ft | 520 kts | 182° |
| 2026-04-26 06:31 | 35.50997 | 113.43887 | 32251 ft | 537 kts | 166° |
| 2026-04-26 06:31 | 35.47520 | 113.45635 | 31914 ft | 541 kts | 162° |
| 2026-04-26 06:32 | 35.44041 | 113.47375 | 31539 ft | 539 kts | 165° |
| 2026-04-26 06:32 | 35.40531 | 113.49003 | 31187 ft | 539 kts | 166° |
| 2026-04-26 06:32 | 35.37007 | 113.50579 | 30840 ft | 539 kts | 166° |
| 2026-04-26 06:32 | 35.33479 | 113.52137 | 30468 ft | 538 kts | 166° |
| 2026-04-26 06:33 | 35.29961 | 113.53694 | 30180 ft | 537 kts | 166° |
| 2026-04-26 06:33 | 35.26450 | 113.55258 | 29900 ft | 535 kts | 166° |
| 2026-04-26 06:33 | 35.22966 | 113.56817 | 29606 ft | 532 kts | 166° |
| 2026-04-26 06:33 | 35.19497 | 113.58374 | 29334 ft | 530 kts | 166° |
| 2026-04-26 06:34 | 35.16089 | 113.59902 | 29074 ft | 527 kts | 166° |
| 2026-04-26 06:34 | 35.12649 | 113.61442 | 28792 ft | 525 kts | 166° |
| 2026-04-26 06:34 | 35.09225 | 113.62971 | 28524 ft | 523 kts | 166° |
| 2026-04-26 06:34 | 35.05808 | 113.64479 | 28243 ft | 520 kts | 166° |
| 2026-04-26 06:35 | 35.02408 | 113.65957 | 28016 ft | 517 kts | 166° |
| 2026-04-26 06:35 | 34.99030 | 113.67418 | 27772 ft | 515 kts | 166° |
| 2026-04-26 06:35 | 34.95662 | 113.68874 | 27510 ft | 513 kts | 166° |
| 2026-04-26 06:35 | 34.92304 | 113.70329 | 27242 ft | 512 kts | 166° |
| 2026-04-26 06:36 | 34.88947 | 113.71785 | 26960 ft | 510 kts | 166° |
| 2026-04-26 06:36 | 34.85599 | 113.73223 | 26181 ft | 512 kts | 167° |
| 2026-04-26 06:36 | 34.82173 | 113.74446 | 24966 ft | 507 kts | 170° |
| 2026-04-26 06:36 | 34.78825 | 113.75482 | 23800 ft | 488 kts | 171° |
| 2026-04-26 06:37 | 34.75587 | 113.76486 | 22550 ft | 472 kts | 170° |
| 2026-04-26 06:37 | 34.72443 | 113.77485 | 21274 ft | 459 kts | 170° |
| 2026-04-26 06:37 | 34.69433 | 113.78457 | 20069 ft | 449 kts | 169° |
| 2026-04-26 06:37 | 34.66438 | 113.79425 | 18901 ft | 442 kts | 169° |
| 2026-04-26 06:38 | 34.63477 | 113.80384 | 17697 ft | 438 kts | 169° |
| 2026-04-26 06:38 | 34.60569 | 113.81362 | 16431 ft | 427 kts | 168° |
| 2026-04-26 06:38 | 34.57748 | 113.82329 | 15204 ft | 415 kts | 168° |
| 2026-04-26 06:38 | 34.55029 | 113.83256 | 14027 ft | 403 kts | 168° |
| 2026-04-26 06:39 | 34.52342 | 113.84014 | 12868 ft | 391 kts | 178° |
| 2026-04-26 06:39 | 34.49675 | 113.83773 | 12426 ft | 379 kts | 198° |
| 2026-04-26 06:39 | 34.47334 | 113.82445 | 11866 ft | 369 kts | 221° |
| 2026-04-26 06:39 | 34.45642 | 113.80191 | 11396 ft | 359 kts | 240° |
| 2026-04-26 06:40 | 34.44655 | 113.77458 | 10976 ft | 350 kts | 257° |
| 2026-04-26 06:40 | 34.44334 | 113.74609 | 10690 ft | 337 kts | 272° |
| 2026-04-26 06:40 | 34.44672 | 113.71878 | 10593 ft | 317 kts | 285° |
| 2026-04-26 06:40 | 34.45357 | 113.69446 | 10454 ft | 295 kts | 291° |
| 2026-04-26 06:41 | 34.46107 | 113.67208 | 10168 ft | 281 kts | 292° |
| 2026-04-26 06:41 | 34.46855 | 113.65072 | 10052 ft | 269 kts | 292° |
| 2026-04-26 06:41 | 34.47563 | 113.63004 | 9810 ft | 264 kts | 292° |
| 2026-04-26 06:41 | 34.48264 | 113.60965 | 9457 ft | 261 kts | 291° |
| 2026-04-26 06:42 | 34.48958 | 113.58927 | 9153 ft | 264 kts | 292° |
| 2026-04-26 06:42 | 34.49672 | 113.56846 | 8846 ft | 270 kts | 292° |
| 2026-04-26 06:42 | 34.50396 | 113.54719 | 8485 ft | 275 kts | 291° |
| 2026-04-26 06:42 | 34.51103 | 113.52629 | 8267 ft | 268 kts | 291° |
| 2026-04-26 06:43 | 34.51794 | 113.50586 | 8152 ft | 255 kts | 291° |
| 2026-04-26 06:43 | 34.52515 | 113.48688 | 8012 ft | 242 kts | 305° |
| 2026-04-26 06:43 | 34.53773 | 113.47394 | 7724 ft | 236 kts | 335° |
| 2026-04-26 06:43 | 34.55351 | 113.46945 | 7453 ft | 233 kts | 356° |
| 2026-04-26 06:44 | 34.56943 | 113.47219 | 7170 ft | 231 kts | 18° |
| 2026-04-26 06:44 | 34.58430 | 113.47936 | 6961 ft | 230 kts | 22° |
| 2026-04-26 06:44 | 34.59921 | 113.48706 | 6653 ft | 235 kts | 22° |
| 2026-04-26 06:44 | 34.61444 | 113.49486 | 6350 ft | 239 kts | 21° |
| 2026-04-26 06:45 | 34.62949 | 113.50286 | 6045 ft | 233 kts | 29° |
| 2026-04-26 06:45 | 34.64018 | 113.51658 | 5778 ft | 224 kts | 64° |
| 2026-04-26 06:45 | 34.64264 | 113.53461 | 5504 ft | 214 kts | 96° |
| 2026-04-26 06:45 | 34.63855 | 113.55143 | 5263 ft | 204 kts | 112° |
| 2026-04-26 06:46 | 34.63291 | 113.56719 | 5053 ft | 202 kts | 113° |
| 2026-04-26 06:46 | 34.62732 | 113.58290 | 4828 ft | 203 kts | 112° |
| 2026-04-26 06:46 | 34.62190 | 113.59855 | 4574 ft | 203 kts | 112° |
| 2026-04-26 06:46 | 34.61650 | 113.61439 | 4310 ft | 202 kts | 112° |
| 2026-04-26 06:47 | 34.61118 | 113.63007 | 4062 ft | 198 kts | 113° |
| 2026-04-26 06:47 | 34.60591 | 113.64556 | 3798 ft | 199 kts | 113° |
| 2026-04-26 06:47 | 34.60067 | 113.66099 | 3546 ft | 196 kts | 113° |
| 2026-04-26 06:47 | 34.59554 | 113.67601 | 3302 ft | 193 kts | 114° |
| 2026-04-26 06:48 | 34.59046 | 113.69100 | 3048 ft | 191 kts | 114° |
| 2026-04-26 06:48 | 34.58553 | 113.70549 | 2794 ft | 180 kts | 113° |
| 2026-04-26 06:48 | 34.58101 | 113.71885 | 2572 ft | 161 kts | 113° |
| 2026-04-26 06:48 | 34.57700 | 113.73058 | 2384 ft | 147 kts | 114° |
| 2026-04-26 06:49 | 34.57301 | 113.74229 | 2233 ft | 154 kts | 114° |
| 2026-04-26 06:49 | 34.56893 | 113.75443 | 2011 ft | 153 kts | 115° |
| 2026-04-26 06:49 | 34.56483 | 113.76635 | 1821 ft | 152 kts | 116° |
| 2026-04-26 06:49 | 34.56083 | 113.77821 | 1595 ft | 150 kts | 114° |
| 2026-04-26 06:50 | 34.55685 | 113.78991 | 1402 ft | 151 kts | 115° |
| 2026-04-26 06:50 | 34.55285 | 113.80136 | 1207 ft | 148 kts | 116° |
| 2026-04-26 06:50 | 34.54886 | 113.81285 | 1041 ft | 147 kts | 112° |
| 2026-04-26 06:50 | 34.54518 | 113.82428 | 801 ft | 147 kts | 114° |
| 2026-04-26 06:51 | 34.54129 | 113.83542 | 641 ft | 147 kts | 115° |
| 2026-04-26 06:51 | 34.53404 | 113.85673 | 501 ft | 106 kts | 112° |
| 2026-04-26 06:51 | 34.53198 | 113.86279 | 499 ft | 44 kts | 113° |